createdAt,value
2022-09-20T00:02:18.261Z,8.90
2022-09-20T00:04:50.167Z,8.99
2022-09-20T00:07:19.973Z,8.90
2022-09-20T00:09:49.777Z,9.00
2022-09-20T00:12:19.583Z,9.00
2022-09-20T00:14:49.389Z,8.94
2022-09-20T00:17:19.074Z,8.88
2022-09-20T00:19:48.888Z,8.97
2022-09-20T00:22:18.633Z,8.97
2022-09-20T00:24:49.213Z,8.77
2022-09-20T00:27:19.014Z,8.77
2022-09-20T00:29:48.793Z,8.81
2022-09-20T00:32:18.478Z,8.72
2022-09-20T00:35:05.925Z,8.60
2022-09-20T00:37:36.566Z,8.83
2022-09-20T00:40:09.644Z,8.69
2022-09-20T00:42:39.684Z,8.73
2022-09-20T00:45:14.414Z,8.88
2022-09-20T00:47:51.335Z,8.81
2022-09-20T00:50:46.685Z,8.73
2022-09-20T00:53:28.351Z,8.68
2022-09-20T00:56:03.928Z,8.90
2022-09-20T00:58:36.745Z,8.73
2022-09-20T01:01:07.676Z,8.78
2022-09-20T01:03:38.959Z,8.59
2022-09-20T01:06:11.566Z,8.58
2022-09-20T01:08:44.855Z,8.48
2022-09-20T01:11:14.652Z,8.66
2022-09-20T01:13:44.723Z,8.72
2022-09-20T01:16:17.317Z,8.59
2022-09-20T01:18:49.023Z,8.64
2022-09-20T01:21:20.171Z,8.67
2022-09-20T01:24:13.797Z,8.68
2022-09-20T01:26:52.649Z,8.62
2022-09-20T01:29:34.179Z,8.68
2022-09-20T01:32:06.833Z,8.61
2022-09-20T01:34:39.976Z,8.67
2022-09-20T01:37:28.067Z,8.70
2022-09-20T01:40:04.374Z,8.58
2022-09-20T01:42:43.747Z,8.53
2022-09-20T01:45:25.802Z,8.48
2022-09-20T01:48:07.417Z,8.45
2022-09-20T01:50:48.958Z,8.60
2022-09-20T01:53:39.378Z,8.66
2022-09-20T01:56:45.585Z,8.53
2022-09-20T01:59:31.121Z,8.56
2022-09-20T02:02:16.328Z,8.55
2022-09-20T02:05:13.287Z,8.49
2022-09-20T02:07:54.545Z,8.52
2022-09-20T02:10:45.495Z,8.49
2022-09-20T02:13:32.591Z,8.43
2022-09-20T02:16:25.294Z,8.39
2022-09-20T02:19:10.037Z,8.42
2022-09-20T02:22:00.162Z,8.43
2022-09-20T02:25:04.456Z,8.38
2022-09-20T02:28:10.446Z,8.42
2022-09-20T02:31:03.514Z,8.42
2022-09-20T02:33:57.566Z,8.42
2022-09-20T02:36:51.524Z,8.53
2022-09-20T02:39:31.973Z,8.43
2022-09-20T02:42:27.361Z,8.49
2022-09-20T02:48:25.310Z,8.24
2022-09-20T02:51:02.692Z,8.24
2022-09-20T02:54:01.215Z,8.23
2022-09-20T02:56:45.814Z,8.21
2022-09-20T02:59:30.404Z,8.30
2022-09-20T03:02:33.128Z,8.41
2022-09-20T03:05:31.423Z,8.29
2022-09-20T03:08:22.027Z,8.43
2022-09-20T03:11:27.816Z,8.43
2022-09-20T03:14:22.650Z,8.52
2022-09-20T03:16:58.592Z,8.44
2022-09-20T03:19:53.522Z,8.46
2022-09-20T03:22:44.679Z,8.35
2022-09-20T03:25:27.808Z,8.53
2022-09-20T03:28:09.294Z,8.47
2022-09-20T03:31:02.965Z,8.58
2022-09-20T03:33:41.544Z,8.63
2022-09-20T03:36:36.767Z,8.69
2022-09-20T03:39:42.893Z,8.69
2022-09-20T03:42:28.448Z,8.78
2022-09-20T03:45:21.422Z,8.78
2022-09-20T03:51:36.333Z,8.71
2022-09-20T03:54:14.869Z,8.81
2022-09-20T03:57:09.043Z,8.74
2022-09-20T03:59:59.667Z,8.89
2022-09-20T04:02:54.803Z,8.81
2022-09-20T04:09:11.650Z,8.87
2022-09-20T04:11:53.488Z,8.89
2022-09-20T04:14:48.798Z,8.87
2022-09-20T04:17:44.208Z,8.88
2022-09-20T04:20:32.261Z,8.98
2022-09-20T04:23:06.558Z,9.05
2022-09-20T04:25:43.893Z,9.08
2022-09-20T04:28:20.444Z,9.00
2022-09-20T04:30:53.944Z,9.01
2022-09-20T04:33:35.526Z,8.97
2022-09-20T04:36:31.548Z,8.89
2022-09-20T04:39:23.879Z,8.89
2022-09-20T04:42:21.984Z,8.88
2022-09-20T04:45:08.003Z,9.00
2022-09-20T04:47:55.555Z,9.09
2022-09-20T04:50:45.080Z,9.05
2022-09-20T04:53:19.018Z,8.98
2022-09-20T04:56:02.751Z,8.97
2022-09-20T04:58:59.318Z,8.94
2022-09-20T05:01:44.171Z,9.10
2022-09-20T05:04:40.029Z,9.08
2022-09-20T05:07:28.499Z,9.09
2022-09-20T05:10:14.633Z,9.05
2022-09-20T05:13:19.632Z,9.07
2022-09-20T05:16:01.062Z,9.11
2022-09-20T05:18:34.725Z,9.01
2022-09-20T05:21:18.790Z,8.94
2022-09-20T05:24:12.060Z,9.02
2022-09-20T05:26:56.639Z,9.06
2022-09-20T05:29:32.115Z,9.05
2022-09-20T05:32:33.474Z,9.07
2022-09-20T05:35:09.347Z,9.18
2022-09-20T05:37:50.777Z,9.17
2022-09-20T05:40:39.387Z,9.15
2022-09-20T05:43:27.007Z,9.18
2022-09-20T05:46:33.256Z,9.29
2022-09-20T05:49:12.430Z,9.35
2022-09-20T05:52:01.726Z,9.33
2022-09-20T05:54:52.782Z,9.41
2022-09-20T05:57:44.080Z,9.38
2022-09-20T06:00:19.828Z,9.46
2022-09-20T06:03:04.715Z,9.49
2022-09-20T06:05:52.385Z,9.55
2022-09-20T06:08:33.517Z,9.59
2022-09-20T06:11:15.163Z,9.64
2022-09-20T06:14:02.289Z,9.67
2022-09-20T06:16:48.455Z,9.82
2022-09-20T06:19:21.424Z,9.67
2022-09-20T06:21:54.609Z,9.78
2022-09-20T06:24:27.463Z,9.92
2022-09-20T06:27:00.205Z,9.95
2022-09-20T06:29:36.015Z,10.00
2022-09-20T06:32:08.212Z,10.00
2022-09-20T06:34:38.189Z,9.92
2022-09-20T06:37:31.403Z,10.00
2022-09-20T06:40:42.723Z,10.02
2022-09-20T06:43:14.159Z,10.11
2022-09-20T06:45:45.042Z,10.20
2022-09-20T06:48:15.558Z,10.18
2022-09-20T06:50:45.737Z,10.15
2022-09-20T06:53:21.175Z,10.34
2022-09-20T06:55:52.859Z,10.32
2022-09-20T06:58:22.656Z,10.27
2022-09-20T07:00:53.499Z,10.33
2022-09-20T07:03:23.295Z,10.51
2022-09-20T07:05:53.550Z,10.51
2022-09-20T07:08:23.062Z,10.40
2022-09-20T07:10:52.883Z,10.56
2022-09-20T07:13:24.093Z,10.56
2022-09-20T07:16:03.907Z,10.56
2022-09-20T07:18:34.553Z,10.60
2022-09-20T07:21:06.248Z,10.56
2022-09-20T07:23:35.765Z,10.51
2022-09-20T07:26:06.861Z,10.61
2022-09-20T07:28:38.513Z,10.58
2022-09-20T07:31:08.399Z,10.67
2022-09-20T07:33:38.238Z,10.69
2022-09-20T07:36:08.581Z,10.90
2022-09-20T07:38:38.121Z,11.01
2022-09-20T07:41:08.274Z,11.18
2022-09-20T07:43:37.991Z,11.26
2022-09-20T07:46:07.740Z,11.34
2022-09-20T07:48:38.145Z,11.52
2022-09-20T07:51:11.131Z,11.49
2022-09-20T07:53:41.787Z,11.31
2022-09-20T07:56:18.790Z,11.19
2022-09-20T07:58:52.430Z,11.08
2022-09-20T08:01:21.929Z,10.90
2022-09-20T08:03:52.109Z,11.00
2022-09-20T08:06:21.844Z,11.07
2022-09-20T08:08:51.857Z,11.35
2022-09-20T08:11:28.554Z,11.61
2022-09-20T08:14:08.784Z,11.76
2022-09-20T08:16:33.434Z,11.76
2022-09-20T08:19:04.572Z,11.83
2022-09-20T08:21:38.431Z,11.96
2022-09-20T08:24:08.032Z,11.92
2022-09-20T08:26:37.898Z,12.28
2022-09-20T08:29:07.761Z,12.49
2022-09-20T08:31:42.552Z,12.67
2022-09-20T08:34:15.792Z,13.27
2022-09-20T08:36:47.446Z,13.42
2022-09-20T08:42:13.088Z,12.92
2022-09-20T08:45:00.451Z,12.77
2022-09-20T08:47:39.465Z,12.50
2022-09-20T08:50:30.373Z,12.35
2022-09-20T08:53:05.371Z,12.35
2022-09-20T08:55:37.316Z,12.18
2022-09-20T08:58:16.375Z,11.97
2022-09-20T09:00:48.539Z,12.05
2022-09-20T09:03:30.012Z,12.74
2022-09-20T09:06:01.241Z,12.74
2022-09-20T09:08:38.005Z,12.57
2022-09-20T09:11:17.281Z,12.57
2022-09-20T09:14:02.344Z,12.50
2022-09-20T09:16:36.486Z,12.47
2022-09-20T09:19:33.807Z,12.42
2022-09-20T09:22:06.019Z,12.21
2022-09-20T09:24:35.828Z,12.13
2022-09-20T09:27:16.791Z,11.95
2022-09-20T09:29:56.409Z,11.95
2022-09-20T09:32:29.636Z,11.80
2022-09-20T09:35:20.339Z,11.76
2022-09-20T09:38:02.018Z,11.80
2022-09-20T09:40:33.616Z,11.82
2022-09-20T09:43:04.862Z,11.82
2022-09-20T09:45:38.532Z,11.80
2022-09-20T09:48:31.135Z,11.90
2022-09-20T09:51:15.970Z,11.91
2022-09-20T09:53:47.443Z,12.04
2022-09-20T09:56:25.910Z,12.02
2022-09-20T09:59:26.138Z,12.19
2022-09-20T10:01:59.062Z,12.17
2022-09-20T10:04:31.695Z,12.21
2022-09-20T10:07:05.273Z,12.27
2022-09-20T10:09:39.297Z,12.43
2022-09-20T10:12:26.252Z,12.19
2022-09-20T10:15:22.168Z,12.47
2022-09-20T10:18:03.581Z,13.16
2022-09-20T10:20:42.291Z,13.52
2022-09-20T10:25:58.349Z,13.91
2022-09-20T10:28:47.300Z,14.60
2022-09-20T10:31:38.215Z,14.74
2022-09-20T10:34:27.008Z,14.94
2022-09-20T10:36:59.962Z,14.12
2022-09-20T10:39:44.003Z,13.96
2022-09-20T10:42:55.881Z,13.96
2022-09-20T10:45:59.637Z,14.20
2022-09-20T10:48:16.712Z,13.93
2022-09-20T10:51:07.354Z,13.89
2022-09-20T10:53:46.924Z,14.89
2022-09-20T10:56:38.478Z,15.11
2022-09-20T10:59:11.356Z,15.79
2022-09-20T11:01:57.319Z,15.96
2022-09-20T11:04:52.125Z,15.68
2022-09-20T11:07:59.857Z,15.59
2022-09-20T11:10:56.764Z,15.04
2022-09-20T11:13:34.009Z,14.58
2022-09-20T11:16:08.085Z,14.17
2022-09-20T11:19:03.366Z,14.60
2022-09-20T11:21:54.636Z,15.28
2022-09-20T11:24:33.829Z,15.43
2022-09-20T11:27:18.106Z,15.31
2022-09-20T11:30:08.697Z,15.40
2022-09-20T11:32:44.265Z,15.29
2022-09-20T11:35:25.156Z,15.68
2022-09-20T11:38:01.645Z,15.42
2022-09-20T11:40:34.394Z,15.18
2022-09-20T11:43:07.283Z,14.78
2022-09-20T11:45:43.825Z,14.73
2022-09-20T11:48:19.774Z,14.55
2022-09-20T11:51:11.411Z,14.14
2022-09-20T11:54:21.490Z,14.36
2022-09-20T11:56:59.744Z,14.56
2022-09-20T11:59:44.083Z,14.42
2022-09-20T12:02:26.490Z,14.53
2022-09-20T12:05:02.114Z,14.53
2022-09-20T12:07:41.155Z,14.50
2022-09-20T12:10:34.044Z,14.50
2022-09-20T12:13:06.822Z,14.54
2022-09-20T12:15:41.933Z,14.34
2022-09-20T12:18:32.045Z,14.36
2022-09-20T12:21:16.244Z,14.34
2022-09-20T12:23:49.347Z,14.44
2022-09-20T12:26:25.185Z,14.56
2022-09-20T12:29:03.065Z,14.67
2022-09-20T12:31:38.878Z,14.86
2022-09-20T12:34:15.496Z,15.20
2022-09-20T12:37:00.609Z,14.94
2022-09-20T12:39:35.776Z,14.55
2022-09-20T12:42:18.878Z,14.43
2022-09-20T12:44:54.417Z,14.40
2022-09-20T12:50:44.876Z,15.30
2022-09-20T12:53:17.295Z,14.96
2022-09-20T12:56:08.499Z,14.70
2022-09-20T12:58:53.712Z,14.73
2022-09-20T13:01:33.678Z,14.52
2022-09-20T13:04:40.339Z,14.10
2022-09-20T13:07:38.795Z,13.97
2022-09-20T13:10:15.992Z,13.91
2022-09-20T13:12:50.391Z,13.91
2022-09-20T13:15:21.886Z,14.02
2022-09-20T13:17:55.668Z,13.96
2022-09-20T13:20:35.148Z,14.12
2022-09-20T13:23:06.830Z,14.25
2022-09-20T13:25:40.032Z,14.55
2022-09-20T13:28:15.780Z,14.50
2022-09-20T13:30:44.490Z,14.34
2022-09-20T13:33:19.513Z,14.19
2022-09-20T13:35:54.661Z,13.97
2022-09-20T13:38:27.849Z,13.97
2022-09-20T13:41:10.699Z,13.78
2022-09-20T13:43:46.654Z,13.78
2022-09-20T13:46:31.283Z,13.80
2022-09-20T13:49:19.913Z,13.93
2022-09-20T13:51:50.427Z,13.71
2022-09-20T13:54:27.554Z,13.49
2022-09-20T13:57:06.015Z,13.47
2022-09-20T13:59:38.861Z,13.52
2022-09-20T14:02:14.249Z,13.54
2022-09-20T14:04:45.514Z,13.51
2022-09-20T14:07:17.442Z,13.46
2022-09-20T14:09:54.897Z,13.64
2022-09-20T14:12:26.460Z,13.64
2022-09-20T14:14:57.881Z,13.74
2022-09-20T14:17:31.252Z,13.91
2022-09-20T14:20:01.418Z,14.28
2022-09-20T14:22:31.883Z,14.59
2022-09-20T14:25:14.769Z,15.14
2022-09-20T14:27:44.859Z,15.14
2022-09-20T14:30:37.326Z,15.41
2022-09-20T14:33:11.424Z,15.39
2022-09-20T14:35:50.732Z,15.14
2022-09-20T14:38:27.684Z,15.18
2022-09-20T14:40:57.659Z,15.12
2022-09-20T14:43:36.320Z,15.11
2022-09-20T14:46:10.217Z,14.99
2022-09-20T14:48:42.061Z,14.99
2022-09-20T14:51:23.504Z,14.74
2022-09-20T14:54:09.120Z,14.77
2022-09-20T14:56:43.219Z,14.65
2022-09-20T14:59:21.603Z,14.65
2022-09-20T15:02:04.953Z,14.44
2022-09-20T15:04:38.078Z,14.43
2022-09-20T15:07:13.545Z,14.44
2022-09-20T15:09:43.924Z,14.54
2022-09-20T15:12:19.511Z,14.39
2022-09-20T15:14:54.649Z,14.30
2022-09-20T15:17:24.268Z,14.18
2022-09-20T15:19:56.059Z,14.53
2022-09-20T15:22:26.537Z,14.15
2022-09-20T15:24:57.660Z,13.99
2022-09-20T15:27:28.505Z,13.99
2022-09-20T15:29:59.045Z,14.26
2022-09-20T15:32:28.541Z,14.13
2022-09-20T15:34:58.357Z,14.09
2022-09-20T15:37:28.351Z,14.16
2022-09-20T15:39:58.377Z,14.06
2022-09-20T15:42:28.227Z,14.07
2022-09-20T15:44:58.284Z,14.08
2022-09-20T15:47:28.515Z,14.05
2022-09-20T15:49:59.310Z,13.98
2022-09-20T15:52:33.966Z,13.91
2022-09-20T15:55:04.991Z,13.91
2022-09-20T15:57:35.495Z,13.68
2022-09-20T16:00:08.966Z,13.60
2022-09-20T16:02:39.692Z,13.09
2022-09-20T16:05:11.163Z,12.71
2022-09-20T16:07:43.089Z,12.71
2022-09-20T16:10:14.147Z,12.44
2022-09-20T16:12:45.145Z,12.22
2022-09-20T16:15:15.441Z,12.10
2022-09-20T16:18:03.332Z,12.10
2022-09-20T16:20:33.504Z,12.05
2022-09-20T16:23:03.642Z,11.78
2022-09-20T16:25:33.763Z,11.80
2022-09-20T16:28:05.207Z,11.75
2022-09-20T16:30:45.460Z,11.56
2022-09-20T16:33:18.323Z,11.60
2022-09-20T16:35:49.277Z,11.48
2022-09-20T16:38:22.422Z,11.38
2022-09-20T16:40:54.712Z,11.38
2022-09-20T16:43:25.430Z,11.28
2022-09-20T16:46:01.904Z,11.42
2022-09-20T16:48:37.976Z,11.30
2022-09-20T16:51:08.000Z,11.35
2022-09-20T16:53:38.192Z,11.17
2022-09-20T16:56:15.051Z,11.20
2022-09-20T16:58:45.262Z,11.22
2022-09-20T17:01:15.376Z,11.26
2022-09-20T17:03:49.073Z,11.00
2022-09-20T17:06:19.723Z,11.00
2022-09-20T17:08:52.809Z,10.90
2022-09-20T17:11:26.744Z,10.95
2022-09-20T17:14:00.591Z,10.77
2022-09-20T17:16:34.567Z,10.77
2022-09-20T17:19:11.491Z,10.59
2022-09-20T17:21:48.646Z,10.64
2022-09-20T17:24:23.188Z,10.58
2022-09-20T17:27:01.415Z,10.65
2022-09-20T17:29:31.905Z,10.53
2022-09-20T17:32:02.870Z,10.39
2022-09-20T17:34:33.157Z,10.37
2022-09-20T17:37:05.572Z,10.33
2022-09-20T17:39:40.799Z,10.42
2022-09-20T17:42:10.330Z,10.16
2022-09-20T17:44:40.175Z,10.24
2022-09-20T17:47:09.958Z,10.11
2022-09-20T17:49:40.922Z,10.26
2022-09-20T17:52:11.256Z,9.98
2022-09-20T17:54:42.271Z,9.81
2022-09-20T17:57:13.793Z,9.96
2022-09-20T17:59:44.847Z,9.85
2022-09-20T18:02:14.619Z,9.94
2022-09-20T18:04:45.329Z,9.85
2022-09-20T18:07:16.868Z,9.65
2022-09-20T18:09:46.671Z,9.71
2022-09-20T18:12:19.838Z,9.57
2022-09-20T18:14:48.022Z,9.57
2022-09-20T18:17:26.984Z,9.39
2022-09-20T18:19:56.859Z,9.38
2022-09-20T18:22:26.795Z,9.30
2022-09-20T18:24:56.718Z,9.28
2022-09-20T18:27:27.918Z,9.37
2022-09-20T18:29:58.262Z,9.19
2022-09-20T18:32:30.622Z,9.23
2022-09-20T18:35:03.651Z,9.19
2022-09-20T18:37:38.000Z,9.21
2022-09-20T18:40:08.720Z,9.17
2022-09-20T18:42:39.678Z,9.19
2022-09-20T18:45:10.822Z,9.21
2022-09-20T18:47:42.820Z,9.23
2022-09-20T18:50:13.383Z,9.25
2022-09-20T18:52:44.542Z,9.30
2022-09-20T18:55:15.914Z,9.24
2022-09-20T18:57:50.617Z,9.28
2022-09-20T19:00:21.156Z,9.28
2022-09-20T19:03:10.019Z,9.36
2022-09-20T19:05:46.019Z,9.31
2022-09-20T19:08:34.543Z,9.36
2022-09-20T19:11:07.588Z,9.24
2022-09-20T19:13:49.540Z,9.31
2022-09-20T19:16:30.755Z,9.21
2022-09-20T19:19:09.126Z,9.24
2022-09-20T19:21:57.211Z,9.13
2022-09-20T19:24:48.879Z,9.19
2022-09-20T19:27:19.958Z,9.33
2022-09-20T19:29:50.115Z,9.33
2022-09-20T19:32:21.802Z,9.10
2022-09-20T19:34:55.880Z,9.16
2022-09-20T19:37:28.736Z,9.20
2022-09-20T19:40:08.893Z,9.02
2022-09-20T19:43:00.262Z,9.10
2022-09-20T19:45:47.243Z,8.93
2022-09-20T19:48:34.836Z,9.07
2022-09-20T19:51:08.206Z,8.82
2022-09-20T19:53:39.306Z,8.99
2022-09-20T19:56:27.598Z,9.01
2022-09-20T19:58:58.079Z,9.05
2022-09-20T20:01:28.414Z,8.99
2022-09-20T20:03:58.320Z,8.85
2022-09-20T20:06:31.192Z,8.97
2022-09-20T20:09:04.107Z,8.83
2022-09-20T20:11:50.171Z,8.83
2022-09-20T20:14:29.060Z,8.96
2022-09-20T20:17:06.194Z,8.74
2022-09-20T20:20:01.516Z,8.77
2022-09-20T20:22:57.049Z,8.59
2022-09-20T20:25:50.187Z,8.59
2022-09-20T20:28:20.198Z,8.61
2022-09-20T20:30:49.989Z,8.57
2022-09-20T20:33:19.810Z,8.35
2022-09-20T20:35:56.957Z,8.35
2022-09-20T20:38:28.371Z,8.38
2022-09-20T20:41:07.104Z,8.41
2022-09-20T20:43:39.173Z,8.24
2022-09-20T20:46:11.475Z,8.24
2022-09-20T20:48:43.437Z,8.54
2022-09-20T20:51:18.847Z,8.32
2022-09-20T20:53:51.896Z,8.27
2022-09-20T20:56:30.031Z,8.29
2022-09-20T20:59:00.820Z,8.34
2022-09-20T21:01:35.775Z,8.35
2022-09-20T21:04:08.309Z,8.31
2022-09-20T21:06:42.187Z,8.33
2022-09-20T21:09:13.438Z,8.19
2022-09-20T21:11:44.468Z,8.04
2022-09-20T21:14:15.785Z,8.20
2022-09-20T21:16:45.608Z,8.35
2022-09-20T21:19:16.808Z,8.28
2022-09-20T21:21:48.097Z,8.20
2022-09-20T21:24:18.370Z,8.25
2022-09-20T21:26:48.555Z,8.18
2022-09-20T21:29:20.320Z,8.30
2022-09-20T21:31:50.115Z,8.37
2022-09-20T21:34:19.691Z,8.31
2022-09-20T21:36:49.499Z,8.28
2022-09-20T21:39:19.092Z,8.17
2022-09-20T21:41:48.877Z,8.11
2022-09-20T21:44:20.620Z,8.16
2022-09-20T21:46:50.491Z,8.16
2022-09-20T21:49:20.303Z,8.07
2022-09-20T21:51:51.731Z,8.15
2022-09-20T21:54:21.539Z,8.28
2022-09-20T21:56:52.973Z,8.16
2022-09-20T21:59:24.313Z,8.32
2022-09-20T22:01:55.128Z,8.23
2022-09-20T22:04:26.159Z,8.27
2022-09-20T22:06:55.655Z,8.34
2022-09-20T22:09:25.468Z,8.22
2022-09-20T22:11:55.335Z,8.25
2022-09-20T22:14:24.896Z,8.11
2022-09-20T22:16:54.687Z,8.29
2022-09-20T22:19:24.563Z,8.16
2022-09-20T22:21:54.531Z,8.21
2022-09-20T22:24:24.174Z,8.23
2022-09-20T22:26:53.979Z,8.18
2022-09-20T22:29:23.478Z,8.11
2022-09-20T22:31:53.293Z,8.15
2022-09-20T22:34:24.793Z,8.24
2022-09-20T22:36:54.358Z,8.15
2022-09-20T22:39:24.867Z,8.14
2022-09-20T22:41:54.728Z,8.09
2022-09-20T22:44:24.265Z,8.11
2022-09-20T22:46:54.055Z,8.19
2022-09-20T22:49:27.240Z,8.19
2022-09-20T22:51:57.330Z,8.01
2022-09-20T22:54:27.137Z,7.84
2022-09-20T22:56:56.982Z,7.95
2022-09-20T22:59:26.782Z,7.88
2022-09-20T23:01:57.668Z,8.07
2022-09-20T23:04:27.762Z,8.05
2022-09-20T23:06:57.548Z,7.94
2022-09-20T23:09:28.380Z,7.94
2022-09-20T23:11:58.529Z,7.88
2022-09-20T23:14:28.696Z,7.83
2022-09-20T23:16:58.521Z,7.98
2022-09-20T23:19:28.297Z,7.78
2022-09-20T23:21:58.378Z,7.85
2022-09-20T23:24:30.136Z,7.96
2022-09-20T23:26:59.939Z,7.84
2022-09-20T23:29:29.831Z,7.76
2022-09-20T23:32:00.568Z,7.83
2022-09-20T23:34:30.071Z,7.85
2022-09-20T23:37:00.038Z,7.65
2022-09-20T23:39:30.856Z,7.65
2022-09-20T23:42:00.636Z,7.84
2022-09-20T23:44:30.742Z,7.81
2022-09-20T23:47:00.546Z,7.64
2022-09-20T23:49:30.354Z,7.69
2022-09-20T23:52:00.146Z,7.67
2022-09-20T23:54:29.944Z,7.78
2022-09-20T23:57:00.086Z,7.65
2022-09-20T23:59:29.720Z,7.60
